sensor_id;sensor_type;location;lat;lon;timestamp;pressure;altitude;pressure_sealevel;temperature;humidity
12471;BME280;36499;46.484;13.832;2023-01-26T00:00:56;93412.38;;;-1.15;76.18
12471;BME280;36499;46.484;13.832;2023-01-26T00:03:25;93409.13;;;-1.17;75.79
12471;BME280;36499;46.484;13.832;2023-01-26T00:05:52;93407.94;;;-1.22;75.47
12471;BME280;36499;46.484;13.832;2023-01-26T00:08:19;93397.19;;;-1.26;75.26
12471;BME280;36499;46.484;13.832;2023-01-26T00:10:47;93398.75;;;-1.25;76.01
12471;BME280;36499;46.484;13.832;2023-01-26T00:13:17;93401.06;;;-1.12;75.85
12471;BME280;36499;46.484;13.832;2023-01-26T00:15:44;93399.06;;;-1.18;75.41
12471;BME280;36499;46.484;13.832;2023-01-26T00:18:11;93390.41;;;-1.17;75.25
12471;BME280;36499;46.484;13.832;2023-01-26T00:20:39;93387.75;;;-1.16;75.55
12471;BME280;36499;46.484;13.832;2023-01-26T00:23:06;93402.00;;;-1.13;75.63
12471;BME280;36499;46.484;13.832;2023-01-26T00:25:33;93397.69;;;-1.13;75.52
12471;BME280;36499;46.484;13.832;2023-01-26T00:28:01;93398.91;;;-1.07;75.47
12471;BME280;36499;46.484;13.832;2023-01-26T00:30:28;93396.75;;;-1.02;75.63
12471;BME280;36499;46.484;13.832;2023-01-26T00:32:55;93400.50;;;-0.97;76.36
12471;BME280;36499;46.484;13.832;2023-01-26T00:35:23;93404.94;;;-0.89;76.50
12471;BME280;36499;46.484;13.832;2023-01-26T00:37:50;93403.34;;;-0.80;76.50
12471;BME280;36499;46.484;13.832;2023-01-26T00:40:17;93398.47;;;-0.74;77.04
12471;BME280;36499;46.484;13.832;2023-01-26T00:42:44;93402.38;;;-0.70;76.54
12471;BME280;36499;46.484;13.832;2023-01-26T00:45:13;93394.94;;;-0.63;76.56
12471;BME280;36499;46.484;13.832;2023-01-26T00:47:40;93393.84;;;-0.61;76.99
12471;BME280;36499;46.484;13.832;2023-01-26T00:50:10;93390.88;;;-0.56;77.06
12471;BME280;36499;46.484;13.832;2023-01-26T00:52:37;93384.00;;;-0.56;77.46
12471;BME280;36499;46.484;13.832;2023-01-26T00:55:05;93381.84;;;-0.51;76.92
12471;BME280;36499;46.484;13.832;2023-01-26T00:57:32;93380.47;;;-0.45;77.65
12471;BME280;36499;46.484;13.832;2023-01-26T01:00:00;93375.59;;;-0.38;77.65
12471;BME280;36499;46.484;13.832;2023-01-26T01:02:28;93378.28;;;-0.40;77.21
12471;BME280;36499;46.484;13.832;2023-01-26T01:04:55;93370.19;;;-0.35;77.10
12471;BME280;36499;46.484;13.832;2023-01-26T01:07:22;93376.25;;;-0.36;76.95
12471;BME280;36499;46.484;13.832;2023-01-26T01:09:49;93372.09;;;-0.37;76.82
12471;BME280;36499;46.484;13.832;2023-01-26T01:12:16;93368.16;;;-0.32;77.19
12471;BME280;36499;46.484;13.832;2023-01-26T01:14:44;93363.84;;;-0.31;76.79
12471;BME280;36499;46.484;13.832;2023-01-26T01:17:11;93360.06;;;-0.27;77.25
12471;BME280;36499;46.484;13.832;2023-01-26T01:19:40;93358.97;;;-0.25;77.17
12471;BME280;36499;46.484;13.832;2023-01-26T01:22:07;93353.56;;;-0.22;77.51
12471;BME280;36499;46.484;13.832;2023-01-26T01:24:34;93351.66;;;-0.20;77.03
12471;BME280;36499;46.484;13.832;2023-01-26T01:27:01;93358.25;;;-0.17;77.41
12471;BME280;36499;46.484;13.832;2023-01-26T01:29:28;93348.66;;;-0.15;76.57
12471;BME280;36499;46.484;13.832;2023-01-26T01:31:55;93351.78;;;-0.12;76.63
12471;BME280;36499;46.484;13.832;2023-01-26T01:34:23;93342.69;;;-0.06;77.09
12471;BME280;36499;46.484;13.832;2023-01-26T01:36:51;93344.31;;;-0.05;77.85
12471;BME280;36499;46.484;13.832;2023-01-26T01:39:18;93345.13;;;-0.05;77.48
12471;BME280;36499;46.484;13.832;2023-01-26T01:41:45;93348.34;;;-0.03;77.58
12471;BME280;36499;46.484;13.832;2023-01-26T01:44:16;93346.72;;;-0.04;78.19
12471;BME280;36499;46.484;13.832;2023-01-26T01:46:49;93347.25;;;0.00;78.32
12471;BME280;36499;46.484;13.832;2023-01-26T01:49:21;93336.56;;;0.05;78.55
12471;BME280;36499;46.484;13.832;2023-01-26T01:51:56;93343.19;;;0.07;78.38
12471;BME280;36499;46.484;13.832;2023-01-26T01:54:31;93341.56;;;0.06;78.56
12471;BME280;36499;46.484;13.832;2023-01-26T01:57:05;93338.06;;;0.07;78.63
12471;BME280;36499;46.484;13.832;2023-01-26T01:59:44;93335.19;;;0.10;78.55
12471;BME280;36499;46.484;13.832;2023-01-26T02:02:15;93330.72;;;0.12;78.52
12471;BME280;36499;46.484;13.832;2023-01-26T02:04:42;93327.88;;;0.15;78.56
12471;BME280;36499;46.484;13.832;2023-01-26T02:07:12;93325.53;;;0.22;78.88
12471;BME280;36499;46.484;13.832;2023-01-26T02:09:40;93317.69;;;0.23;78.70
12471;BME280;36499;46.484;13.832;2023-01-26T02:12:29;93324.59;;;0.23;78.06
12471;BME280;36499;46.484;13.832;2023-01-26T02:14:57;93325.53;;;0.22;78.10
12471;BME280;36499;46.484;13.832;2023-01-26T02:17:26;93320.72;;;0.19;78.21
12471;BME280;36499;46.484;13.832;2023-01-26T02:20:02;93313.16;;;0.17;78.81
12471;BME280;36499;46.484;13.832;2023-01-26T02:22:44;93308.84;;;0.18;78.77
12471;BME280;36499;46.484;13.832;2023-01-26T02:25:24;93307.91;;;0.19;78.63
12471;BME280;36499;46.484;13.832;2023-01-26T02:27:54;93304.75;;;0.25;78.89
12471;BME280;36499;46.484;13.832;2023-01-26T02:30:22;93306.38;;;0.26;79.00
12471;BME280;36499;46.484;13.832;2023-01-26T02:32:49;93304.44;;;0.28;79.52
12471;BME280;36499;46.484;13.832;2023-01-26T02:35:17;93299.47;;;0.26;79.42
12471;BME280;36499;46.484;13.832;2023-01-26T02:37:44;93291.13;;;0.24;79.52
12471;BME280;36499;46.484;13.832;2023-01-26T02:40:23;93290.69;;;0.29;79.71
12471;BME280;36499;46.484;13.832;2023-01-26T02:42:51;93278.50;;;0.31;79.47
12471;BME280;36499;46.484;13.832;2023-01-26T02:45:21;93284.75;;;0.28;79.21
12471;BME280;36499;46.484;13.832;2023-01-26T02:47:49;93281.03;;;0.23;79.01
12471;BME280;36499;46.484;13.832;2023-01-26T02:50:16;93273.19;;;0.24;78.54
12471;BME280;36499;46.484;13.832;2023-01-26T02:52:42;93273.59;;;0.20;78.38
12471;BME280;36499;46.484;13.832;2023-01-26T02:55:09;93263.56;;;0.09;77.90
12471;BME280;36499;46.484;13.832;2023-01-26T02:57:49;93262.50;;;0.11;78.48
12471;BME280;36499;46.484;13.832;2023-01-26T03:00:22;93258.44;;;0.09;78.13
12471;BME280;36499;46.484;13.832;2023-01-26T03:02:51;93251.72;;;0.08;78.25
12471;BME280;36499;46.484;13.832;2023-01-26T03:05:19;93252.38;;;0.10;78.14
12471;BME280;36499;46.484;13.832;2023-01-26T03:07:47;93246.53;;;-0.01;79.19
12471;BME280;36499;46.484;13.832;2023-01-26T03:10:14;93240.16;;;0.04;79.15
12471;BME280;36499;46.484;13.832;2023-01-26T03:12:43;93246.59;;;0.08;78.48
12471;BME280;36499;46.484;13.832;2023-01-26T03:15:11;93242.78;;;0.12;79.06
12471;BME280;36499;46.484;13.832;2023-01-26T03:18:05;93242.34;;;0.16;78.76
12471;BME280;36499;46.484;13.832;2023-01-26T03:20:50;93229.69;;;0.15;78.75
12471;BME280;36499;46.484;13.832;2023-01-26T03:23:35;93224.25;;;0.18;78.87
12471;BME280;36499;46.484;13.832;2023-01-26T03:26:20;93232.59;;;0.20;78.82
12471;BME280;36499;46.484;13.832;2023-01-26T03:29:04;93223.81;;;0.22;78.46
12471;BME280;36499;46.484;13.832;2023-01-26T03:31:31;93225.41;;;0.23;78.00
12471;BME280;36499;46.484;13.832;2023-01-26T03:34:00;93216.41;;;0.19;77.93
12471;BME280;36499;46.484;13.832;2023-01-26T03:36:27;93217.81;;;0.14;78.08
12471;BME280;36499;46.484;13.832;2023-01-26T03:38:54;93211.50;;;0.08;77.48
12471;BME280;36499;46.484;13.832;2023-01-26T03:41:21;93215.47;;;0.03;77.49
12471;BME280;36499;46.484;13.832;2023-01-26T03:44:05;93213.88;;;0.02;77.71
12471;BME280;36499;46.484;13.832;2023-01-26T03:46:50;93215.09;;;-0.03;77.42
12471;BME280;36499;46.484;13.832;2023-01-26T03:49:36;93211.38;;;-0.08;77.80
12471;BME280;36499;46.484;13.832;2023-01-26T03:52:20;93215.31;;;-0.14;77.46
12471;BME280;36499;46.484;13.832;2023-01-26T03:55:06;93218.81;;;-0.15;77.31
12471;BME280;36499;46.484;13.832;2023-01-26T03:57:51;93202.94;;;-0.18;77.27
12471;BME280;36499;46.484;13.832;2023-01-26T04:00:18;93208.88;;;-0.18;77.08
12471;BME280;36499;46.484;13.832;2023-01-26T04:02:46;93203.38;;;-0.23;76.55
12471;BME280;36499;46.484;13.832;2023-01-26T04:05:32;93210.41;;;-0.25;76.81
12471;BME280;36499;46.484;13.832;2023-01-26T04:08:16;93213.19;;;-0.36;76.48
12471;BME280;36499;46.484;13.832;2023-01-26T04:10:47;93203.53;;;-0.42;76.57
12471;BME280;36499;46.484;13.832;2023-01-26T04:13:15;93206.34;;;-0.45;77.21
12471;BME280;36499;46.484;13.832;2023-01-26T04:16:00;93199.47;;;-0.44;76.25
12471;BME280;36499;46.484;13.832;2023-01-26T04:18:45;93198.84;;;-0.74;75.17
12471;BME280;36499;46.484;13.832;2023-01-26T04:21:31;93197.22;;;-0.75;75.80
12471;BME280;36499;46.484;13.832;2023-01-26T04:24:01;93199.94;;;-0.76;76.41
12471;BME280;36499;46.484;13.832;2023-01-26T04:26:35;93192.28;;;-0.76;77.09
12471;BME280;36499;46.484;13.832;2023-01-26T04:29:06;93187.81;;;-0.74;77.08
12471;BME280;36499;46.484;13.832;2023-01-26T04:31:34;93193.97;;;-0.67;77.35
12471;BME280;36499;46.484;13.832;2023-01-26T04:34:03;93188.19;;;-0.69;77.42
12471;BME280;36499;46.484;13.832;2023-01-26T04:36:32;93185.63;;;-0.69;77.22
12471;BME280;36499;46.484;13.832;2023-01-26T04:39:00;93188.44;;;-0.72;77.23
12471;BME280;36499;46.484;13.832;2023-01-26T04:41:29;93180.66;;;-0.71;76.90
12471;BME280;36499;46.484;13.832;2023-01-26T04:43:57;93184.00;;;-0.70;77.26
12471;BME280;36499;46.484;13.832;2023-01-26T04:46:24;93181.34;;;-0.78;76.45
12471;BME280;36499;46.484;13.832;2023-01-26T04:48:51;93184.59;;;-0.76;76.86
12471;BME280;36499;46.484;13.832;2023-01-26T04:51:20;93180.25;;;-0.76;76.98
12471;BME280;36499;46.484;13.832;2023-01-26T04:53:50;93175.81;;;-0.74;76.80
12471;BME280;36499;46.484;13.832;2023-01-26T04:56:22;93177.56;;;-0.74;76.97
12471;BME280;36499;46.484;13.832;2023-01-26T04:58:50;93178.22;;;-0.72;77.73
12471;BME280;36499;46.484;13.832;2023-01-26T05:01:17;93176.22;;;-0.69;77.63
12471;BME280;36499;46.484;13.832;2023-01-26T05:03:44;93175.41;;;-0.69;77.83
12471;BME280;36499;46.484;13.832;2023-01-26T05:06:12;93172.25;;;-0.63;77.70
12471;BME280;36499;46.484;13.832;2023-01-26T05:08:39;93176.13;;;-0.59;78.33
12471;BME280;36499;46.484;13.832;2023-01-26T05:11:08;93179.06;;;-0.54;77.86
12471;BME280;36499;46.484;13.832;2023-01-26T05:13:35;93174.47;;;-0.51;78.13
12471;BME280;36499;46.484;13.832;2023-01-26T05:16:03;93181.22;;;-0.50;77.90
12471;BME280;36499;46.484;13.832;2023-01-26T05:18:30;93171.75;;;-0.49;77.59
12471;BME280;36499;46.484;13.832;2023-01-26T05:20:58;93176.34;;;-0.53;77.13
12471;BME280;36499;46.484;13.832;2023-01-26T05:23:25;93175.84;;;-0.56;76.84
12471;BME280;36499;46.484;13.832;2023-01-26T05:25:52;93175.03;;;-0.57;77.06
12471;BME280;36499;46.484;13.832;2023-01-26T05:28:20;93177.31;;;-0.54;77.13
12471;BME280;36499;46.484;13.832;2023-01-26T05:30:47;93176.88;;;-0.49;77.41
12471;BME280;36499;46.484;13.832;2023-01-26T05:33:15;93177.84;;;-0.50;77.34
12471;BME280;36499;46.484;13.832;2023-01-26T05:35:46;93172.44;;;-0.47;77.66
12471;BME280;36499;46.484;13.832;2023-01-26T05:38:14;93175.78;;;-0.46;78.33
12471;BME280;36499;46.484;13.832;2023-01-26T05:40:41;93174.69;;;-0.44;77.83
12471;BME280;36499;46.484;13.832;2023-01-26T05:43:08;93172.81;;;-0.42;77.73
12471;BME280;36499;46.484;13.832;2023-01-26T05:45:36;93175.22;;;-0.40;77.75
12471;BME280;36499;46.484;13.832;2023-01-26T05:48:03;93176.16;;;-0.41;77.80
12471;BME280;36499;46.484;13.832;2023-01-26T05:50:31;93175.06;;;-0.39;77.46
12471;BME280;36499;46.484;13.832;2023-01-26T05:52:58;93170.31;;;-0.34;78.16
12471;BME280;36499;46.484;13.832;2023-01-26T05:55:25;93179.47;;;-0.31;77.80
12471;BME280;36499;46.484;13.832;2023-01-26T05:57:52;93172.94;;;-0.26;77.77
12471;BME280;36499;46.484;13.832;2023-01-26T06:00:20;93168.06;;;-0.19;77.92
12471;BME280;36499;46.484;13.832;2023-01-26T06:02:49;93162.69;;;-0.26;77.34
12471;BME280;36499;46.484;13.832;2023-01-26T06:05:16;93158.16;;;-0.32;78.04
12471;BME280;36499;46.484;13.832;2023-01-26T06:07:43;93159.91;;;-0.32;78.34
12471;BME280;36499;46.484;13.832;2023-01-26T06:10:10;93160.72;;;-0.32;78.89
12471;BME280;36499;46.484;13.832;2023-01-26T06:12:38;93154.38;;;-0.28;79.27
12471;BME280;36499;46.484;13.832;2023-01-26T06:15:09;93150.69;;;-0.25;79.39
12471;BME280;36499;46.484;13.832;2023-01-26T06:17:37;93150.91;;;-0.19;79.19
12471;BME280;36499;46.484;13.832;2023-01-26T06:20:07;93154.44;;;-0.20;78.70
12471;BME280;36499;46.484;13.832;2023-01-26T06:22:34;93144.19;;;-0.20;78.93
12471;BME280;36499;46.484;13.832;2023-01-26T06:25:02;93138.91;;;-0.18;78.66
12471;BME280;36499;46.484;13.832;2023-01-26T06:27:29;93140.53;;;-0.17;78.80
12471;BME280;36499;46.484;13.832;2023-01-26T06:29:56;93137.84;;;-0.16;78.68
12471;BME280;36499;46.484;13.832;2023-01-26T06:32:23;93132.41;;;-0.13;78.88
12471;BME280;36499;46.484;13.832;2023-01-26T06:34:50;93134.03;;;-0.12;78.69
12471;BME280;36499;46.484;13.832;2023-01-26T06:37:19;93124.72;;;-0.13;78.61
12471;BME280;36499;46.484;13.832;2023-01-26T06:39:46;93132.41;;;-0.13;78.69
12471;BME280;36499;46.484;13.832;2023-01-26T06:42:13;93132.84;;;-0.17;78.31
12471;BME280;36499;46.484;13.832;2023-01-26T06:44:40;93124.94;;;-0.24;77.92
12471;BME280;36499;46.484;13.832;2023-01-26T06:47:08;93131.66;;;-0.23;77.73
12471;BME280;36499;46.484;13.832;2023-01-26T06:49:35;93131.03;;;-0.25;78.13
12471;BME280;36499;46.484;13.832;2023-01-26T06:52:24;93134.19;;;-0.31;77.94
12471;BME280;36499;46.484;13.832;2023-01-26T06:54:54;93135.50;;;-0.27;78.21
12471;BME280;36499;46.484;13.832;2023-01-26T06:57:24;93130.22;;;-0.25;78.29
12471;BME280;36499;46.484;13.832;2023-01-26T06:59:51;93133.88;;;-0.28;78.32
12471;BME280;36499;46.484;13.832;2023-01-26T07:02:20;93139.66;;;-0.26;78.19
12471;BME280;36499;46.484;13.832;2023-01-26T07:04:49;93130.38;;;-0.27;78.01
12471;BME280;36499;46.484;13.832;2023-01-26T07:07:16;93126.72;;;-0.24;78.17
12471;BME280;36499;46.484;13.832;2023-01-26T07:09:44;93133.28;;;-0.22;77.90
12471;BME280;36499;46.484;13.832;2023-01-26T07:12:11;93130.59;;;-0.20;77.80
12471;BME280;36499;46.484;13.832;2023-01-26T07:14:38;93123.50;;;0.17;81.95
12471;BME280;36499;46.484;13.832;2023-01-26T07:17:05;93112.91;;;0.64;81.11
12471;BME280;36499;46.484;13.832;2023-01-26T07:19:32;93108.78;;;1.21;77.71
12471;BME280;36499;46.484;13.832;2023-01-26T07:22:00;93116.09;;;1.66;75.08
12471;BME280;36499;46.484;13.832;2023-01-26T07:24:27;93112.75;;;1.81;71.83
12471;BME280;36499;46.484;13.832;2023-01-26T07:26:56;93103.13;;;2.00;71.82
12471;BME280;36499;46.484;13.832;2023-01-26T07:29:23;93104.06;;;1.90;71.00
12471;BME280;36499;46.484;13.832;2023-01-26T07:31:50;93105.03;;;1.65;70.74
12471;BME280;36499;46.484;13.832;2023-01-26T07:34:17;93109.81;;;1.44;71.24
12471;BME280;36499;46.484;13.832;2023-01-26T07:36:44;93103.19;;;1.25;71.54
12471;BME280;36499;46.484;13.832;2023-01-26T07:39:11;93101.69;;;1.15;72.20
12471;BME280;36499;46.484;13.832;2023-01-26T07:41:38;93103.91;;;1.02;72.07
12471;BME280;36499;46.484;13.832;2023-01-26T07:44:10;93097.63;;;0.96;72.45
12471;BME280;36499;46.484;13.832;2023-01-26T07:46:37;93100.78;;;0.82;71.74
12471;BME280;36499;46.484;13.832;2023-01-26T07:49:04;93098.34;;;0.72;72.79
12471;BME280;36499;46.484;13.832;2023-01-26T07:51:32;93095.13;;;0.70;73.39
12471;BME280;36499;46.484;13.832;2023-01-26T07:53:59;93099.63;;;0.68;73.86
12471;BME280;36499;46.484;13.832;2023-01-26T07:56:27;93100.56;;;0.67;74.26
12471;BME280;36499;46.484;13.832;2023-01-26T07:58:54;93092.81;;;0.59;72.53
12471;BME280;36499;46.484;13.832;2023-01-26T08:01:22;93093.63;;;0.60;73.06
12471;BME280;36499;46.484;13.832;2023-01-26T08:03:51;93088.22;;;0.37;71.37
12471;BME280;36499;46.484;13.832;2023-01-26T08:06:19;93096.25;;;0.42;73.11
12471;BME280;36499;46.484;13.832;2023-01-26T08:08:48;93093.91;;;0.48;72.42
12471;BME280;36499;46.484;13.832;2023-01-26T08:11:19;93100.47;;;0.51;72.85
12471;BME280;36499;46.484;13.832;2023-01-26T08:13:48;93099.56;;;0.60;72.61
12471;BME280;36499;46.484;13.832;2023-01-26T08:16:15;93091.56;;;0.63;72.09
12471;BME280;36499;46.484;13.832;2023-01-26T08:18:45;93093.06;;;0.74;72.94
12471;BME280;36499;46.484;13.832;2023-01-26T08:21:15;93087.16;;;0.81;72.83
12471;BME280;36499;46.484;13.832;2023-01-26T08:23:47;93083.69;;;0.99;73.32
12471;BME280;36499;46.484;13.832;2023-01-26T08:26:14;93083.59;;;1.16;72.57
12471;BME280;36499;46.484;13.832;2023-01-26T08:28:43;93082.66;;;1.33;72.64
12471;BME280;36499;46.484;13.832;2023-01-26T08:31:14;93087.50;;;1.53;72.63
12471;BME280;36499;46.484;13.832;2023-01-26T08:33:46;93077.91;;;1.71;72.18
12471;BME280;36499;46.484;13.832;2023-01-26T08:36:16;93094.44;;;1.76;70.92
12471;BME280;36499;46.484;13.832;2023-01-26T08:38:44;93081.13;;;1.89;71.86
12471;BME280;36499;46.484;13.832;2023-01-26T08:41:11;93090.25;;;2.08;71.95
12471;BME280;36499;46.484;13.832;2023-01-26T08:43:38;93084.13;;;2.25;70.94
12471;BME280;36499;46.484;13.832;2023-01-26T08:46:07;93085.88;;;2.32;69.89
12471;BME280;36499;46.484;13.832;2023-01-26T08:48:34;93079.56;;;2.51;69.21
12471;BME280;36499;46.484;13.832;2023-01-26T08:51:06;93087.94;;;2.61;68.88
12471;BME280;36499;46.484;13.832;2023-01-26T08:53:35;93083.50;;;2.86;69.65
12471;BME280;36499;46.484;13.832;2023-01-26T08:56:04;93084.25;;;3.03;68.79
12471;BME280;36499;46.484;13.832;2023-01-26T08:58:32;93077.59;;;3.08;69.37
12471;BME280;36499;46.484;13.832;2023-01-26T09:01:04;93088.88;;;3.15;67.90
12471;BME280;36499;46.484;13.832;2023-01-26T09:03:31;93087.81;;;2.94;68.26
12471;BME280;36499;46.484;13.832;2023-01-26T09:06:00;93081.94;;;2.77;67.19
12471;BME280;36499;46.484;13.832;2023-01-26T09:08:31;93088.84;;;2.76;67.89
12471;BME280;36499;46.484;13.832;2023-01-26T09:10:59;93089.31;;;2.80;67.65
12471;BME280;36499;46.484;13.832;2023-01-26T09:13:26;93094.00;;;2.76;68.43
12471;BME280;36499;46.484;13.832;2023-01-26T09:15:53;93090.78;;;2.74;67.94
12471;BME280;36499;46.484;13.832;2023-01-26T09:18:20;93086.91;;;2.78;67.41
12471;BME280;36499;46.484;13.832;2023-01-26T09:20:47;93085.69;;;2.58;69.38
12471;BME280;36499;46.484;13.832;2023-01-26T09:23:15;93086.44;;;2.75;68.95
12471;BME280;36499;46.484;13.832;2023-01-26T09:25:44;93088.97;;;2.83;69.49
12471;BME280;36499;46.484;13.832;2023-01-26T09:28:11;93086.53;;;2.89;68.61
12471;BME280;36499;46.484;13.832;2023-01-26T09:30:38;93086.88;;;2.86;68.41
12471;BME280;36499;46.484;13.832;2023-01-26T09:33:05;93089.41;;;3.03;69.73
12471;BME280;36499;46.484;13.832;2023-01-26T09:35:32;93089.63;;;3.24;69.84
12471;BME280;36499;46.484;13.832;2023-01-26T09:37:59;93096.72;;;3.53;68.26
12471;BME280;36499;46.484;13.832;2023-01-26T09:40:36;93088.81;;;3.77;68.69
12471;BME280;36499;46.484;13.832;2023-01-26T09:43:23;93094.09;;;3.83;67.91
12471;BME280;36499;46.484;13.832;2023-01-26T09:46:03;93078.38;;;3.93;67.28
12471;BME280;36499;46.484;13.832;2023-01-26T09:48:43;93080.22;;;4.07;67.31
12471;BME280;36499;46.484;13.832;2023-01-26T09:51:22;93082.34;;;4.04;67.11
12471;BME280;36499;46.484;13.832;2023-01-26T09:53:57;93073.81;;;4.03;67.01
12471;BME280;36499;46.484;13.832;2023-01-26T09:56:29;93074.72;;;4.10;66.67
12471;BME280;36499;46.484;13.832;2023-01-26T09:59:10;93069.84;;;3.93;67.37
12471;BME280;36499;46.484;13.832;2023-01-26T10:01:48;93061.38;;;4.07;67.13
12471;BME280;36499;46.484;13.832;2023-01-26T10:04:29;93064.25;;;4.26;66.18
12471;BME280;36499;46.484;13.832;2023-01-26T10:07:06;93064.88;;;4.28;66.24
12471;BME280;36499;46.484;13.832;2023-01-26T10:09:37;93058.94;;;4.57;65.27
12471;BME280;36499;46.484;13.832;2023-01-26T10:12:10;93052.00;;;4.58;64.98
12471;BME280;36499;46.484;13.832;2023-01-26T10:14:45;93054.94;;;4.84;64.11
12471;BME280;36499;46.484;13.832;2023-01-26T10:17:20;93043.00;;;4.98;63.73
12471;BME280;36499;46.484;13.832;2023-01-26T10:19:56;93051.13;;;5.09;64.98
12471;BME280;36499;46.484;13.832;2023-01-26T10:22:37;93042.75;;;5.43;63.47
12471;BME280;36499;46.484;13.832;2023-01-26T10:25:15;93036.22;;;5.68;62.57
12471;BME280;36499;46.484;13.832;2023-01-26T10:27:43;93037.91;;;5.76;61.83
12471;BME280;36499;46.484;13.832;2023-01-26T10:30:13;93033.63;;;6.04;61.79
12471;BME280;36499;46.484;13.832;2023-01-26T10:32:43;93028.44;;;6.32;60.60
12471;BME280;36499;46.484;13.832;2023-01-26T10:35:17;93026.47;;;6.62;60.82
12471;BME280;36499;46.484;13.832;2023-01-26T10:37:45;93025.25;;;6.58;60.10
12471;BME280;36499;46.484;13.832;2023-01-26T10:40:13;93019.38;;;6.77;59.79
12471;BME280;36499;46.484;13.832;2023-01-26T10:42:54;93009.34;;;7.02;59.41
12471;BME280;36499;46.484;13.832;2023-01-26T10:45:28;93010.00;;;7.17;57.46
12471;BME280;36499;46.484;13.832;2023-01-26T10:48:13;93003.25;;;7.22;57.11
12471;BME280;36499;46.484;13.832;2023-01-26T10:50:41;92998.06;;;7.29;57.24
12471;BME280;36499;46.484;13.832;2023-01-26T10:53:15;92979.88;;;7.16;56.19
12471;BME280;36499;46.484;13.832;2023-01-26T10:55:58;92991.16;;;7.56;56.25
12471;BME280;36499;46.484;13.832;2023-01-26T10:58:45;92979.97;;;7.55;56.16
12471;BME280;36499;46.484;13.832;2023-01-26T11:01:16;92969.78;;;7.54;55.85
12471;BME280;36499;46.484;13.832;2023-01-26T11:04:04;92968.84;;;7.88;54.32
12471;BME280;36499;46.484;13.832;2023-01-26T11:06:33;92963.06;;;8.05;54.68
12471;BME280;36499;46.484;13.832;2023-01-26T11:09:17;92962.06;;;8.06;54.22
12471;BME280;36499;46.484;13.832;2023-01-26T11:11:59;92956.66;;;8.14;55.25
12471;BME280;36499;46.484;13.832;2023-01-26T11:14:28;92959.84;;;8.30;54.73
12471;BME280;36499;46.484;13.832;2023-01-26T11:17:07;92948.88;;;8.08;54.60
12471;BME280;36499;46.484;13.832;2023-01-26T11:20:05;92949.28;;;8.31;53.62
12471;BME280;36499;46.484;13.832;2023-01-26T11:22:41;92940.22;;;8.66;50.83
12471;BME280;36499;46.484;13.832;2023-01-26T11:25:24;92937.97;;;8.77;50.37
12471;BME280;36499;46.484;13.832;2023-01-26T11:28:12;92932.72;;;8.96;50.59
12471;BME280;36499;46.484;13.832;2023-01-26T11:31:08;92925.56;;;8.85;49.29
12471;BME280;36499;46.484;13.832;2023-01-26T11:33:54;92909.94;;;9.30;50.15
12471;BME280;36499;46.484;13.832;2023-01-26T11:36:37;92912.88;;;9.40;49.45
12471;BME280;36499;46.484;13.832;2023-01-26T11:39:19;92906.78;;;9.52;49.91
12471;BME280;36499;46.484;13.832;2023-01-26T11:42:08;92904.06;;;9.41;48.84
12471;BME280;36499;46.484;13.832;2023-01-26T11:45:10;92902.78;;;9.56;48.88
12471;BME280;36499;46.484;13.832;2023-01-26T11:47:59;92896.44;;;9.46;46.82
12471;BME280;36499;46.484;13.832;2023-01-26T11:50:39;92893.09;;;9.63;47.89
12471;BME280;36499;46.484;13.832;2023-01-26T11:53:42;92889.00;;;9.74;46.73
12471;BME280;36499;46.484;13.832;2023-01-26T11:56:35;92882.00;;;9.50;47.87
12471;BME280;36499;46.484;13.832;2023-01-26T11:59:13;92880.34;;;9.55;45.57
12471;BME280;36499;46.484;13.832;2023-01-26T12:01:47;92875.00;;;9.50;45.93
12471;BME280;36499;46.484;13.832;2023-01-26T12:04:20;92876.41;;;9.15;46.39
12471;BME280;36499;46.484;13.832;2023-01-26T12:06:53;92866.72;;;9.29;45.82
12471;BME280;36499;46.484;13.832;2023-01-26T12:09:30;92854.50;;;9.36;46.31
12471;BME280;36499;46.484;13.832;2023-01-26T12:12:07;92851.53;;;8.94;48.50
12471;BME280;36499;46.484;13.832;2023-01-26T12:14:43;92847.88;;;8.71;48.01
12471;BME280;36499;46.484;13.832;2023-01-26T12:17:34;92850.59;;;8.18;47.04
12471;BME280;36499;46.484;13.832;2023-01-26T12:20:24;92846.25;;;8.05;47.84
12471;BME280;36499;46.484;13.832;2023-01-26T12:23:00;92840.19;;;8.18;48.48
12471;BME280;36499;46.484;13.832;2023-01-26T12:25:33;92829.84;;;8.11;48.60
12471;BME280;36499;46.484;13.832;2023-01-26T12:28:16;92829.63;;;8.19;47.88
12471;BME280;36499;46.484;13.832;2023-01-26T12:30:57;92824.63;;;8.18;48.41
12471;BME280;36499;46.484;13.832;2023-01-26T12:33:27;92829.59;;;8.26;48.34
12471;BME280;36499;46.484;13.832;2023-01-26T12:36:15;92821.00;;;8.39;48.38
12471;BME280;36499;46.484;13.832;2023-01-26T12:39:11;92812.94;;;8.53;48.28
12471;BME280;36499;46.484;13.832;2023-01-26T12:41:59;92809.91;;;8.63;49.11
12471;BME280;36499;46.484;13.832;2023-01-26T12:44:36;92811.00;;;8.42;48.06
12471;BME280;36499;46.484;13.832;2023-01-26T12:47:12;92815.00;;;8.38;48.17
12471;BME280;36499;46.484;13.832;2023-01-26T12:49:49;92813.19;;;8.45;48.49
12471;BME280;36499;46.484;13.832;2023-01-26T12:52:24;92803.84;;;8.18;47.67
12471;BME280;36499;46.484;13.832;2023-01-26T12:55:02;92810.94;;;7.91;48.99
12471;BME280;36499;46.484;13.832;2023-01-26T12:57:39;92808.31;;;7.98;49.29
12471;BME280;36499;46.484;13.832;2023-01-26T13:00:20;92807.78;;;7.63;48.58
12471;BME280;36499;46.484;13.832;2023-01-26T13:02:52;92817.38;;;7.43;48.84
12471;BME280;36499;46.484;13.832;2023-01-26T13:05:28;92814.34;;;6.93;49.07
12471;BME280;36499;46.484;13.832;2023-01-26T13:07:56;92811.91;;;6.65;51.13
12471;BME280;36499;46.484;13.832;2023-01-26T13:10:44;92810.78;;;5.86;54.23
12471;BME280;36499;46.484;13.832;2023-01-26T13:13:30;92821.34;;;5.63;56.73
12471;BME280;36499;46.484;13.832;2023-01-26T13:16:32;92818.94;;;5.55;56.49
12471;BME280;36499;46.484;13.832;2023-01-26T13:19:00;92818.88;;;5.49;56.76
12471;BME280;36499;46.484;13.832;2023-01-26T13:21:41;92806.41;;;5.24;56.26